Time;durP1;ratioP1;P1;durP2;ratioP2;P2;SDS_P1;SDS_P2;PMS_P1;PMS_P2;Temp;Humidity;BMP_temperature;BMP_pressure;BME280_temperature;BME280_humidity;BME280_pressure;Samples;Min_cycle;Max_cycle;Signal;HPM_P1;HPM_P2
2024/01/07 00:01:50;;;;;;;51.33;17.52;;;;;;;2.55;100.00;97402.00;5036191;28;20049;-77
2024/01/07 00:04:17;;;;;;;46.78;17.23;;;;;;;2.72;100.00;97410.50;5020083;28;20483;-79
2024/01/07 00:06:46;;;;;;;58.17;18.15;;;;;;;2.40;100.00;97406.25;5026811;28;20048;-78
2024/01/07 00:09:13;;;;;;;48.33;16.48;;;;;;;2.71;100.00;97419.63;5033712;28;20049;-77
2024/01/07 00:11:40;;;;;;;56.90;18.00;;;;;;;2.64;100.00;97416.41;5039919;28;20072;-77
2024/01/07 00:14:08;;;;;;;60.65;16.58;;;;;;;2.44;100.00;97414.56;5045022;28;20060;-79
2024/01/07 00:16:34;;;;;;;51.28;17.75;;;;;;;2.33;100.00;97429.78;5041097;28;20041;-78
2024/01/07 00:19:01;;;;;;;55.05;17.77;;;;;;;2.45;100.00;97427.63;5042383;28;20527;-79
2024/01/07 00:21:28;;;;;;;54.38;18.65;;;;;;;2.46;100.00;97428.44;5036596;28;20042;-80
2024/01/07 00:23:55;;;;;;;60.58;17.50;;;;;;;2.53;100.00;97429.78;5041381;28;20132;-78
2024/01/07 00:26:22;;;;;;;56.53;18.65;;;;;;;2.55;100.00;97424.19;5038972;28;21106;-79
2024/01/07 00:28:49;;;;;;;54.70;18.33;;;;;;;2.66;100.00;97427.66;5047549;28;20516;-77
2024/01/07 00:31:16;;;;;;;55.17;17.65;;;;;;;2.43;100.00;97437.78;5040712;28;20041;-77
2024/01/07 00:33:45;;;;;;;46.47;17.40;;;;;;;2.62;100.00;97431.91;5027339;28;20069;-75
2024/01/07 00:36:12;;;;;;;47.58;15.88;;;;;;;2.23;100.00;97443.13;5045057;28;20408;-77
2024/01/07 00:38:39;;;;;;;46.53;17.23;;;;;;;2.44;100.00;97433.25;5034314;28;20041;-78
2024/01/07 00:41:05;;;;;;;50.40;15.73;;;;;;;2.38;100.00;97429.78;5035293;28;20042;-76
2024/01/07 00:43:32;;;;;;;44.10;15.13;;;;;;;2.62;100.00;97438.06;5031485;28;20045;-78
2024/01/07 00:45:59;;;;;;;42.65;15.75;;;;;;;2.61;100.00;97457.03;5020674;28;20524;-78
2024/01/07 00:48:29;;;;;;;43.90;15.82;;;;;;;2.62;100.00;97447.94;5021489;28;20459;-77
2024/01/07 00:50:56;;;;;;;45.22;15.77;;;;;;;2.66;100.00;97441.00;5042740;28;20041;-77
2024/01/07 00:53:23;;;;;;;40.80;14.65;;;;;;;2.52;100.00;97432.72;5036053;28;20124;-78
2024/01/07 00:55:49;;;;;;;36.72;14.20;;;;;;;2.71;100.00;97449.00;5048661;28;20100;-79
2024/01/07 00:58:17;;;;;;;40.53;15.38;;;;;;;2.42;100.00;97446.91;5049825;28;20595;-77
2024/01/07 01:00:43;;;;;;;42.72;15.43;;;;;;;2.51;100.00;97447.94;5054159;28;20050;-76
2024/01/07 01:03:10;;;;;;;39.30;15.63;;;;;;;2.37;100.00;97444.22;5051199;28;20073;-77
2024/01/07 01:05:37;;;;;;;42.40;16.48;;;;;;;2.37;100.00;97451.44;5047096;28;20045;-78
2024/01/07 01:08:05;;;;;;;41.17;16.85;;;;;;;2.46;100.00;97447.13;5056729;28;20048;-78
2024/01/07 01:10:31;;;;;;;41.72;15.60;;;;;;;2.34;100.00;97460.78;5029781;28;20099;-78
2024/01/07 01:12:58;;;;;;;46.38;16.60;;;;;;;2.34;100.00;97455.44;5052605;28;20045;-79
2024/01/07 01:15:25;;;;;;;42.40;17.10;;;;;;;2.42;100.00;97454.91;5046979;28;20136;-77
2024/01/07 01:17:53;;;;;;;40.63;17.05;;;;;;;2.29;100.00;97463.44;5043036;28;20041;-79
2024/01/07 01:20:20;;;;;;;41.95;16.25;;;;;;;2.51;100.00;97468.50;5034798;28;20055;-77
2024/01/07 01:22:48;;;;;;;51.60;18.25;;;;;;;2.23;100.00;97474.38;5048173;28;20546;-78
2024/01/07 01:25:14;;;;;;;44.20;17.38;;;;;;;2.31;100.00;97471.19;5049156;28;20052;-76
2024/01/07 01:27:42;;;;;;;48.05;18.15;;;;;;;2.10;100.00;97462.34;5028462;28;20075;-78
2024/01/07 01:30:09;;;;;;;46.75;17.90;;;;;;;2.05;100.00;97486.34;5045416;28;20057;-77
2024/01/07 01:32:36;;;;;;;44.00;17.00;;;;;;;2.01;100.00;97474.63;5042656;28;20137;-79
2024/01/07 01:35:04;;;;;;;49.42;18.35;;;;;;;1.97;100.00;97484.19;5029761;28;20061;-76
2024/01/07 01:37:32;;;;;;;45.60;17.88;;;;;;;1.94;100.00;97473.25;5012701;28;20478;-78
2024/01/07 01:39:59;;;;;;;48.65;18.40;;;;;;;2.04;100.00;97481.28;5025347;28;21674;-79
2024/01/07 01:42:26;;;;;;;44.42;16.17;;;;;;;1.97;100.00;97484.19;5064426;28;20045;-78
2024/01/07 01:44:56;;;;;;;47.70;17.27;;;;;;;1.92;100.00;97489.53;5014898;28;20046;-77
2024/01/07 01:47:23;;;;;;;45.63;18.10;;;;;;;2.04;100.00;97492.75;5015240;28;20049;-76
2024/01/07 01:49:52;;;;;;;43.38;17.90;;;;;;;2.02;100.00;97489.53;5030442;28;20045;-78
2024/01/07 01:52:19;;;;;;;44.88;17.02;;;;;;;1.96;100.00;97481.81;5018762;28;20042;-78
2024/01/07 01:54:46;;;;;;;48.20;17.15;;;;;;;2.26;100.00;97495.22;5030913;28;20045;-77
2024/01/07 01:57:19;;;;;;;57.30;19.10;;;;;;;2.10;100.00;97504.25;5020390;28;20042;-77
2024/01/07 01:59:45;;;;;;;50.72;17.40;;;;;;;1.92;100.00;97492.19;5023550;28;20091;-79
2024/01/07 02:02:13;;;;;;;48.50;18.08;;;;;;;1.94;100.00;97497.28;5012721;28;20045;-79
2024/01/07 02:04:43;;;;;;;51.10;17.75;;;;;;;1.83;100.00;80508.31;5025410;28;20034;-76
2024/01/07 02:07:10;;;;;;;42.20;16.17;;;;;;;-141.50;100.00;63355.56;5023104;28;20049;-77
2024/01/07 02:09:39;;;;;;;43.35;16.02;;;;;;;-141.50;100.00;63355.56;5017837;28;20061;-78
2024/01/07 02:12:11;;;;;;;46.88;15.80;;;;;;;-141.50;100.00;63355.56;5028225;28;20500;-77
2024/01/07 02:14:39;;;;;;;50.33;18.00;;;;;;;-141.50;100.00;63355.56;5033180;28;20045;-79
2024/01/07 02:17:06;;;;;;;46.58;16.75;;;;;;;-141.50;100.00;63355.56;5022949;28;20041;-77
2024/01/07 02:19:33;;;;;;;44.28;17.08;;;;;;;-141.50;100.00;63355.56;5018851;28;20420;-79
2024/01/07 02:22:04;;;;;;;47.63;17.40;;;;;;;-141.50;100.00;63355.56;5026654;28;20046;-79
2024/01/07 02:24:31;;;;;;;54.95;19.77;;;;;;;-141.50;100.00;63355.56;5007587;28;20046;-78
2024/01/07 02:27:02;;;;;;;55.13;18.55;;;;;;;-141.50;100.00;63355.56;5029469;28;20045;-79
2024/01/07 02:29:29;;;;;;;52.13;19.85;;;;;;;-141.50;100.00;63355.56;5012308;28;20483;-77
2024/01/07 02:31:56;;;;;;;53.85;19.80;;;;;;;-141.50;100.00;63355.56;5014874;28;20572;-78
2024/01/07 02:34:25;;;;;;;54.22;20.85;;;;;;;-141.50;100.00;63355.56;5044258;28;20057;-78
2024/01/07 02:36:52;;;;;;;63.00;20.25;;;;;;;-141.50;100.00;63355.56;5038174;28;20064;-79
2024/01/07 02:39:19;;;;;;;51.70;18.50;;;;;;;1.86;100.00;97547.41;5031541;28;20045;-77
2024/01/07 02:41:46;;;;;;;53.80;19.45;;;;;;;2.02;100.00;97526.13;5031511;28;20585;-78
2024/01/07 02:44:13;;;;;;;58.55;19.70;;;;;;;2.06;100.00;97535.22;5057673;28;20064;-78
2024/01/07 02:46:40;;;;;;;48.40;17.15;;;;;;;1.87;100.00;97549.03;5028115;28;20048;-80
2024/01/07 02:49:07;;;;;;;49.15;16.80;;;;;;;1.89;100.00;97538.91;5045610;28;20041;-76
2024/01/07 02:51:34;;;;;;;51.47;17.95;;;;;;;-141.50;100.00;63355.56;5025498;28;20046;-78
2024/01/07 02:54:02;;;;;;;39.78;15.23;;;;;;;-141.50;100.00;63355.56;5024276;28;20044;-77
2024/01/07 02:56:29;;;;;;;46.08;15.43;;;;;;;-141.50;100.00;63355.56;5039530;28;20099;-79
2024/01/07 02:58:55;;;;;;;47.60;15.57;;;;;;;-141.50;100.00;63355.56;5028415;28;20077;-80
2024/01/07 03:01:23;;;;;;;42.72;14.80;;;;;;;-141.50;100.00;63355.56;5043476;28;20045;-78
2024/01/07 03:03:50;;;;;;;41.47;14.45;;;;;;;-141.50;100.00;63355.56;5027860;28;20046;-78
2024/01/07 03:06:20;;;;;;;41.13;14.55;;;;;;;-141.50;100.00;63355.56;5032213;28;20202;-77
2024/01/07 03:08:49;;;;;;;43.70;15.48;;;;;;;-141.50;100.00;63355.56;5035737;28;20520;-77
2024/01/07 03:11:16;;;;;;;35.95;13.82;;;;;;;-141.50;100.00;63355.56;5020108;28;20561;-78
2024/01/07 03:13:43;;;;;;;36.30;14.45;;;;;;;-141.50;100.00;63355.56;5023932;28;20129;-78
2024/01/07 03:16:19;;;;;;;40.05;14.48;;;;;;;-141.50;100.00;63355.56;5028444;28;20520;-77
2024/01/07 03:18:49;;;;;;;40.50;16.13;;;;;;;-141.50;100.00;63355.56;5023972;28;20045;-77
2024/01/07 03:21:20;;;;;;;43.35;15.43;;;;;;;-141.50;100.00;63355.56;5030959;28;20240;-78
2024/01/07 03:23:47;;;;;;;39.05;14.10;;;;;;;-141.50;100.00;63355.56;5038581;28;20049;-79
2024/01/07 03:26:20;;;;;;;45.08;15.95;;;;;;;-141.50;100.00;63355.56;5034902;28;20041;-77
2024/01/07 03:28:47;;;;;;;45.17;15.90;;;;;;;-141.50;100.00;63355.56;5012675;28;20867;-80
2024/01/07 03:31:16;;;;;;;45.97;16.00;;;;;;;-141.50;100.00;63355.56;5016321;28;20092;-80
2024/01/07 03:33:43;;;;;;;48.47;17.30;;;;;;;-141.50;100.00;63355.56;5028399;28;20404;-80
2024/01/07 03:36:14;;;;;;;50.67;16.85;;;;;;;-141.50;100.00;63355.56;5023432;28;20050;-79
2024/01/07 03:38:43;;;;;;;46.78;16.48;;;;;;;-141.50;100.00;63355.56;5028400;28;20053;-79
2024/01/07 03:41:17;;;;;;;52.55;16.75;;;;;;;-141.50;100.00;63355.56;5030489;28;20080;-79
2024/01/07 03:43:48;;;;;;;50.28;15.98;;;;;;;-141.50;100.00;63355.56;5029257;28;20075;-80
2024/01/07 03:46:16;;;;;;;47.72;15.38;;;;;;;-141.50;100.00;63355.56;5023882;28;20091;-78
2024/01/07 03:48:43;;;;;;;51.97;17.10;;;;;;;-141.50;100.00;63355.56;5051475;28;20516;-79
2024/01/07 03:51:10;;;;;;;50.85;17.17;;;;;;;-141.50;100.00;63355.56;5045159;28;20503;-79
2024/01/07 03:53:37;;;;;;;50.00;16.80;;;;;;;-141.50;100.00;63355.56;5046688;28;20067;-78
2024/01/07 03:56:05;;;;;;;44.53;15.80;;;;;;;-141.50;100.00;63355.56;5047278;28;20137;-78
2024/01/07 03:58:32;;;;;;;48.72;16.88;;;;;;;-141.50;100.00;63355.56;5046961;28;20052;-76
2024/01/07 04:00:59;;;;;;;44.03;15.23;;;;;;;-141.50;100.00;63355.56;5046131;28;20052;-76
2024/01/07 04:03:26;;;;;;;48.67;15.65;;;;;;;-141.50;100.00;63355.56;5045986;28;20041;-78
2024/01/07 04:05:53;;;;;;;48.13;15.95;;;;;;;-141.50;100.00;63355.56;5039853;28;20103;-76
2024/01/07 04:08:20;;;;;;;47.08;17.52;;;;;;;-141.50;100.00;63355.56;5049975;28;20041;-78
2024/01/07 04:10:47;;;;;;;49.95;15.30;;;;;;;-141.50;100.00;63355.56;5048066;28;20045;-78
2024/01/07 04:13:14;;;;;;;45.88;16.45;;;;;;;-141.50;100.00;63355.56;5047760;28;20041;-77
2024/01/07 04:15:41;;;;;;;43.05;15.25;;;;;;;-141.50;100.00;63355.56;5022055;28;20057;-78
2024/01/07 04:18:08;;;;;;;38.15;13.82;;;;;;;-141.50;100.00;63355.56;5040161;28;20065;-79
2024/01/07 04:20:35;;;;;;;50.83;15.60;;;;;;;-141.50;100.00;63355.56;5046052;28;20052;-80
2024/01/07 04:23:02;;;;;;;43.78;15.20;;;;;;;-141.50;100.00;63355.56;5034278;28;20041;-77
2024/01/07 04:25:29;;;;;;;46.15;15.95;;;;;;;-141.50;100.00;63355.56;5041671;28;20574;-80
2024/01/07 04:27:55;;;;;;;38.35;14.15;;;;;;;-141.50;100.00;63355.56;5047149;28;20139;-79
2024/01/07 04:30:22;;;;;;;44.55;16.02;;;;;;;-141.50;100.00;63355.56;5038927;28;20049;-80
2024/01/07 04:32:49;;;;;;;44.10;15.43;;;;;;;-141.50;100.00;63355.56;5036350;28;20052;-80
2024/01/07 04:35:16;;;;;;;47.45;15.73;;;;;;;-141.50;100.00;63355.56;5037728;28;20466;-77
2024/01/07 04:37:43;;;;;;;45.95;14.95;;;;;;;-141.50;100.00;63355.56;5046595;28;20049;-78
2024/01/07 04:40:10;;;;;;;44.90;13.93;;;;;;;-141.50;100.00;63355.56;5031545;28;20049;-78
2024/01/07 04:42:37;;;;;;;38.45;13.43;;;;;;;-141.50;100.00;63355.56;5040658;28;20592;-74
2024/01/07 04:45:04;;;;;;;38.70;13.68;;;;;;;-141.50;100.00;63355.56;5036369;28;20064;-78
2024/01/07 04:47:35;;;;;;;44.63;14.57;;;;;;;-141.50;100.00;63355.56;5005714;28;20053;-78
2024/01/07 04:50:03;;;;;;;34.55;13.38;;;;;;;-141.50;100.00;63355.56;5033405;28;20044;-78
2024/01/07 04:52:30;;;;;;;40.10;14.40;;;;;;;-141.50;100.00;63355.56;5023497;28;20636;-77
2024/01/07 04:54:57;;;;;;;40.08;13.77;;;;;;;-141.50;100.00;63355.56;5019543;28;20099;-78
2024/01/07 04:57:24;;;;;;;36.22;12.27;;;;;;;-141.50;100.00;63355.56;5041099;28;20124;-75
2024/01/07 04:59:52;;;;;;;35.75;12.40;;;;;;;-141.50;100.00;63355.56;5042462;28;20084;-75
2024/01/07 05:02:19;;;;;;;35.17;13.30;;;;;;;-141.50;100.00;63355.56;5042681;28;20224;-75
2024/01/07 05:04:45;;;;;;;34.33;13.40;;;;;;;-141.50;100.00;63355.56;5046698;28;21286;-78
2024/01/07 05:07:12;;;;;;;33.88;13.20;;;;;;;-141.50;100.00;63355.56;5058319;28;20041;-76
2024/01/07 05:09:39;;;;;;;35.38;12.80;;;;;;;-141.50;100.00;63355.56;5028367;28;20045;-75
2024/01/07 05:12:08;;;;;;;30.90;11.60;;;;;;;-141.50;100.00;63355.56;5031266;28;20046;-76
2024/01/07 05:14:38;;;;;;;31.10;11.20;;;;;;;-141.50;100.00;63355.56;5040011;28;20046;-74
2024/01/07 05:17:06;;;;;;;32.92;11.93;;;;;;;-141.50;100.00;63355.56;5051155;28;20045;-76
2024/01/07 05:19:33;;;;;;;28.70;10.60;;;;;;;-141.50;100.00;63355.56;5059836;28;20686;-79
2024/01/07 05:22:00;;;;;;;32.78;11.43;;;;;;;-141.50;100.00;63355.56;5051908;28;20041;-76
2024/01/07 05:24:28;;;;;;;29.58;11.15;;;;;;;-141.50;100.00;63355.56;5062924;28;20118;-76
2024/01/07 05:26:57;;;;;;;23.42;9.00;;;;;;;-141.50;100.00;63355.56;5060045;28;20440;-76
2024/01/07 05:29:23;;;;;;;29.20;9.90;;;;;;;-141.50;100.00;63355.56;5055104;28;20102;-76
2024/01/07 05:31:50;;;;;;;29.90;10.70;;;;;;;-141.50;100.00;63355.56;5052269;28;20041;-77
2024/01/07 05:34:17;;;;;;;30.38;10.52;;;;;;;-141.50;100.00;63355.56;5048534;28;20119;-78
2024/01/07 05:36:44;;;;;;;27.90;9.70;;;;;;;-141.50;100.00;63355.56;5050844;28;20041;-77
2024/01/07 05:39:11;;;;;;;26.67;9.60;;;;;;;-141.50;100.00;63355.56;5038660;28;20044;-78
2024/01/07 05:41:38;;;;;;;30.67;10.60;;;;;;;-141.50;100.00;63355.56;5047388;28;20060;-76
2024/01/07 05:44:09;;;;;;;27.38;10.05;;;;;;;-141.50;100.00;63355.56;5054892;28;20045;-78
2024/01/07 05:46:39;;;;;;;24.67;10.48;;;;;;;-141.50;100.00;63355.56;5050390;28;20045;-78
2024/01/07 05:49:06;;;;;;;23.52;9.15;;;;;;;-141.50;100.00;63355.56;5045144;28;20071;-78
2024/01/07 05:51:33;;;;;;;35.65;9.82;;;;;;;-141.50;100.00;63355.56;5045347;28;20049;-78
2024/01/07 05:54:00;;;;;;;26.27;9.20;;;;;;;-141.50;100.00;63355.56;5056116;28;20109;-78
2024/01/07 05:56:27;;;;;;;29.55;9.52;;;;;;;-141.50;100.00;63355.56;5050139;28;20650;-76
2024/01/07 05:58:54;;;;;;;25.13;8.68;;;;;;;-141.50;100.00;63355.56;5048667;28;20238;-79
2024/01/07 06:01:21;;;;;;;26.20;10.23;;;;;;;-141.50;100.00;63355.56;5049913;28;20115;-78
2024/01/07 06:03:48;;;;;;;32.20;9.68;;;;;;;-141.50;100.00;63355.56;5047711;28;20049;-78
2024/01/07 06:06:16;;;;;;;26.25;9.52;;;;;;;-141.50;100.00;63355.56;5039708;28;20102;-77
2024/01/07 06:08:43;;;;;;;24.30;10.25;;;;;;;-141.50;100.00;63355.56;5047902;28;20052;-78
2024/01/07 06:11:18;;;;;;;25.00;9.98;;;;;;;-141.50;100.00;63355.56;5038075;28;20045;-78
2024/01/07 06:13:45;;;;;;;26.23;7.72;;;;;;;-141.50;100.00;63355.56;5041108;28;20046;-78
2024/01/07 06:16:12;;;;;;;23.08;9.15;;;;;;;-141.50;100.00;63355.56;5042364;28;20062;-79
2024/01/07 06:18:39;;;;;;;24.05;9.23;;;;;;;-141.50;100.00;63355.56;5035965;28;20120;-77
2024/01/07 06:21:06;;;;;;;24.42;9.40;;;;;;;-141.50;100.00;63355.56;5034260;28;20420;-79
2024/01/07 06:23:33;;;;;;;23.10;9.10;;;;;;;-141.50;100.00;63355.56;5038251;28;20048;-77
2024/01/07 06:26:02;;;;;;;24.77;8.82;;;;;;;-141.50;100.00;63355.56;5045229;28;20048;-78
2024/01/07 06:28:29;;;;;;;26.02;8.38;;;;;;;-141.50;100.00;63355.56;5044397;28;20068;-78
2024/01/07 06:30:56;;;;;;;25.08;9.90;;;;;;;-141.50;100.00;63355.56;5044679;28;20105;-77
2024/01/07 06:33:26;;;;;;;26.48;9.65;;;;;;;-141.50;100.00;63355.56;5031335;28;20128;-75
2024/01/07 06:35:53;;;;;;;27.20;9.13;;;;;;;-141.50;100.00;63355.56;5039762;28;20045;-78
2024/01/07 06:38:20;;;;;;;22.98;8.05;;;;;;;-141.50;100.00;63355.56;5010051;28;20042;-77
2024/01/07 06:40:47;;;;;;;20.63;7.35;;;;;;;-141.50;100.00;63355.56;5030575;28;20052;-79
2024/01/07 06:43:13;;;;;;;23.33;8.43;;;;;;;-141.50;100.00;63355.56;5012224;28;20445;-78
2024/01/07 06:45:42;;;;;;;18.35;7.47;;;;;;;-141.50;100.00;63355.56;5014117;28;20050;-79
2024/01/07 06:48:08;;;;;;;25.73;8.35;;;;;;;-141.50;100.00;63355.56;5040508;28;20127;-78
2024/01/07 06:50:35;;;;;;;26.25;8.05;;;;;;;-141.50;100.00;63355.56;5033979;28;20448;-79
2024/01/07 06:53:05;;;;;;;24.85;8.10;;;;;;;-141.50;100.00;63355.56;5028845;28;20486;-76
2024/01/07 06:55:32;;;;;;;20.70;7.15;;;;;;;-141.50;100.00;63355.56;5028455;28;20065;-77
2024/01/07 06:57:58;;;;;;;22.83;8.68;;;;;;;-141.50;100.00;63355.56;5045136;28;20053;-80
2024/01/07 07:00:25;;;;;;;20.48;7.90;;;;;;;-141.50;100.00;63355.56;5028927;28;20060;-77
2024/01/07 07:02:55;;;;;;;22.13;7.85;;;;;;;-141.50;100.00;63355.56;5032182;28;20550;-79
2024/01/07 07:05:22;;;;;;;23.85;8.27;;;;;;;-141.50;100.00;63355.56;5027458;28;20033;-79
2024/01/07 07:07:49;;;;;;;23.65;7.85;;;;;;;-141.50;100.00;63355.56;5041651;28;20055;-78
2024/01/07 07:10:20;;;;;;;19.55;7.68;;;;;;;-141.50;100.00;63355.56;5041817;28;20502;-78
2024/01/07 07:12:46;;;;;;;19.40;7.55;;;;;;;-141.50;100.00;63355.56;5030471;28;20058;-79
2024/01/07 07:15:13;;;;;;;17.00;6.90;;;;;;;-141.50;100.00;63355.56;5030172;28;20072;-79
2024/01/07 07:17:40;;;;;;;16.80;6.85;;;;;;;-141.50;100.00;63355.56;5032862;28;20116;-79
2024/01/07 07:20:08;;;;;;;17.25;6.97;;;;;;;-141.50;100.00;63355.56;5038273;28;20041;-79
2024/01/07 07:22:35;;;;;;;18.15;6.88;;;;;;;-141.50;100.00;63355.56;5045518;28;20102;-78
2024/01/07 07:25:02;;;;;;;20.77;6.80;;;;;;;-141.50;100.00;63355.56;5046150;28;20036;-76
2024/01/07 07:27:29;;;;;;;17.08;6.45;;;;;;;-141.50;100.00;63355.56;5059925;28;20735;-78
2024/01/07 07:29:56;;;;;;;13.40;6.20;;;;;;;-141.50;100.00;63355.56;5057397;28;20049;-77
2024/01/07 07:32:23;;;;;;;17.50;6.53;;;;;;;-141.50;100.00;63355.56;5055723;28;20052;-76
2024/01/07 07:34:50;;;;;;;23.02;6.75;;;;;;;-141.50;100.00;63355.56;5058611;28;20044;-77
2024/01/07 07:37:17;;;;;;;19.38;7.00;;;;;;;-141.50;100.00;63355.56;5049924;28;20045;-77
2024/01/07 07:39:47;;;;;;;14.27;6.60;;;;;;;-141.50;100.00;63355.56;5050617;28;20049;-76
2024/01/07 07:42:14;;;;;;;19.75;6.85;;;;;;;-141.50;100.00;63355.56;5058830;28;20509;-78
2024/01/07 07:44:40;;;;;;;15.02;5.85;;;;;;;-141.50;100.00;63355.56;5060185;28;20105;-77
2024/01/07 07:47:08;;;;;;;16.70;6.10;;;;;;;-141.50;100.00;63355.56;5058770;28;20049;-79
2024/01/07 07:49:36;;;;;;;18.30;6.05;;;;;;;-141.50;100.00;63355.56;5057694;28;20056;-78
2024/01/07 07:52:04;;;;;;;17.58;6.22;;;;;;;-141.50;100.00;63355.56;5043430;28;20053;-78
2024/01/07 07:54:30;;;;;;;13.60;6.80;;;;;;;-141.50;100.00;63355.56;5040739;28;20503;-77
2024/01/07 07:57:02;;;;;;;15.05;6.20;;;;;;;-141.50;100.00;63355.56;5053608;28;20041;-80
2024/01/07 07:59:31;;;;;;;15.43;6.10;;;;;;;-141.50;100.00;63355.56;5062134;28;20075;-77
2024/01/07 08:01:59;;;;;;;15.50;5.80;;;;;;;-141.50;100.00;63355.56;5053987;28;20058;-77
2024/01/07 08:04:26;;;;;;;13.27;5.50;;;;;;;-141.50;100.00;63355.56;5055220;28;20044;-78
2024/01/07 08:06:56;;;;;;;13.13;5.90;;;;;;;-141.50;100.00;63355.56;5052937;28;20056;-79
2024/01/07 08:09:25;;;;;;;15.02;6.35;;;;;;;-141.50;100.00;63355.56;5059534;28;20052;-78
2024/01/07 08:11:51;;;;;;;16.83;5.75;;;;;;;-141.50;100.00;63355.56;5042073;28;20076;-79
2024/01/07 08:14:18;;;;;;;12.43;5.22;;;;;;;-141.50;100.00;63355.56;5050262;28;20079;-78
2024/01/07 08:16:45;;;;;;;10.32;5.13;;;;;;;-141.50;100.00;63355.56;5046076;28;20079;-77
2024/01/07 08:19:12;;;;;;;11.23;4.95;;;;;;;-141.50;100.00;63355.56;5043487;28;20598;-78
2024/01/07 08:21:39;;;;;;;12.15;4.93;;;;;;;-141.50;100.00;63355.56;5040516;28;20043;-77
2024/01/07 08:24:06;;;;;;;11.68;5.05;;;;;;;-141.50;100.00;63355.56;5039564;28;20119;-80
2024/01/07 08:26:33;;;;;;;14.90;5.63;;;;;;;-141.50;100.00;63355.56;5043213;28;20514;-81
2024/01/07 08:29:00;;;;;;;14.07;5.28;;;;;;;-141.50;100.00;63355.56;5038745;28;20049;-79
2024/01/07 08:31:26;;;;;;;14.98;5.18;;;;;;;-141.50;100.00;63355.56;5037581;28;20495;-78
2024/01/07 08:33:53;;;;;;;14.40;5.68;;;;;;;-141.50;100.00;63355.56;5035726;28;20041;-79
2024/01/07 08:36:20;;;;;;;10.68;4.68;;;;;;;-141.50;100.00;63355.56;5043001;28;20079;-77
2024/01/07 08:38:47;;;;;;;13.98;5.03;;;;;;;-141.50;100.00;63355.56;5050819;28;20045;-80
2024/01/07 08:41:16;;;;;;;12.27;5.05;;;;;;;-141.50;100.00;63355.56;5085553;28;20119;-78
2024/01/07 08:43:44;;;;;;;10.05;4.43;;;;;;;-141.50;100.00;63355.56;5049337;28;20048;-79
2024/01/07 08:46:13;;;;;;;9.70;4.45;;;;;;;-141.50;100.00;63355.56;5038512;28;20044;-83
2024/01/07 08:48:40;;;;;;;12.00;4.65;;;;;;;-141.50;100.00;63355.56;5053238;28;20045;-78
2024/01/07 08:51:07;;;;;;;9.60;4.40;;;;;;;-141.50;100.00;63355.56;5057748;28;20060;-78
2024/01/07 08:53:34;;;;;;;9.52;4.32;;;;;;;-141.50;100.00;63355.56;5046229;28;20132;-77
2024/01/07 08:56:00;;;;;;;13.45;4.25;;;;;;;-141.50;100.00;63355.56;5036082;28;20065;-77
2024/01/07 08:58:27;;;;;;;11.68;5.05;;;;;;;-141.50;100.00;63355.56;5045217;28;20041;-76
2024/01/07 09:00:54;;;;;;;9.02;4.03;;;;;;;-141.50;100.00;63355.56;5046445;28;20052;-77
2024/01/07 09:03:21;;;;;;;10.50;4.70;;;;;;;-141.50;100.00;63355.56;5040725;28;20041;-79
2024/01/07 09:05:47;;;;;;;9.02;4.18;;;;;;;-141.50;100.00;63355.56;5042813;28;20134;-77
2024/01/07 09:08:14;;;;;;;9.27;4.03;;;;;;;-141.50;100.00;63355.56;5041104;28;20451;-79
2024/01/07 09:10:41;;;;;;;8.90;4.05;;;;;;;-141.50;100.00;63355.56;5040152;28;20050;-76
2024/01/07 09:13:08;;;;;;;11.00;3.90;;;;;;;-141.50;100.00;63355.56;5048470;28;20041;-78
2024/01/07 09:15:35;;;;;;;10.95;4.10;;;;;;;-141.50;100.00;63355.56;5043533;28;20103;-79
2024/01/07 09:18:03;;;;;;;8.77;3.97;;;;;;;-141.50;100.00;63355.56;5043333;28;20118;-78
2024/01/07 09:20:29;;;;;;;13.00;4.13;;;;;;;-141.50;100.00;63355.56;5034538;28;20049;-78
2024/01/07 09:22:56;;;;;;;10.35;4.05;;;;;;;-141.50;100.00;63355.56;5054947;28;20060;-78
2024/01/07 09:25:23;;;;;;;8.63;3.78;;;;;;;-141.50;100.00;63355.56;5043938;28;20095;-78
2024/01/07 09:27:50;;;;;;;8.48;3.63;;;;;;;-141.50;100.00;63355.56;5043794;28;20049;-78
2024/01/07 09:30:17;;;;;;;9.45;4.13;;;;;;;-141.50;100.00;63355.56;5054778;28;20133;-78
2024/01/07 09:32:44;;;;;;;8.70;4.00;;;;;;;-141.50;100.00;63355.56;5054025;28;20045;-77
2024/01/07 09:35:11;;;;;;;10.32;4.10;;;;;;;-141.50;100.00;63355.56;5046126;28;20041;-76
2024/01/07 09:37:38;;;;;;;9.68;4.00;;;;;;;-141.50;100.00;63355.56;5053372;28;20496;-78
2024/01/07 09:40:06;;;;;;;8.07;3.60;;;;;;;-141.50;100.00;63355.56;5050276;28;20048;-78
2024/01/07 09:42:33;;;;;;;9.27;3.47;;;;;;;-141.50;100.00;63355.56;5056988;28;20392;-79
2024/01/07 09:45:07;;;;;;;6.78;2.97;;;;;;;-141.50;100.00;63355.56;5052123;28;20792;-76
2024/01/07 09:47:35;;;;;;;5.97;3.00;;;;;;;-141.50;100.00;63355.56;5053771;28;20045;-77
2024/01/07 09:50:02;;;;;;;9.57;2.75;;;;;;;-141.50;100.00;63355.56;5047623;28;20038;-77
2024/01/07 09:52:29;;;;;;;7.93;2.85;;;;;;;-141.50;100.00;63355.56;5035866;28;20053;-76
2024/01/07 09:55:00;;;;;;;8.18;2.75;;;;;;;-141.50;100.00;63355.56;5025157;28;20053;-79
2024/01/07 09:57:27;;;;;;;8.80;2.85;;;;;;;-141.50;100.00;63355.56;5049160;28;20400;-78
2024/01/07 09:59:54;;;;;;;4.80;2.40;;;;;;;-141.50;100.00;63355.56;5041433;28;20041;-76
2024/01/07 10:02:24;;;;;;;7.40;2.60;;;;;;;-141.50;100.00;63355.56;5051205;28;20048;-76
2024/01/07 10:04:51;;;;;;;7.43;2.90;;;;;;;-141.50;100.00;63355.56;5051064;28;20049;-77
2024/01/07 10:07:17;;;;;;;6.25;2.67;;;;;;;-141.50;100.00;63355.56;5055225;28;20083;-80
2024/01/07 10:09:44;;;;;;;5.95;2.50;;;;;;;-141.50;100.00;63355.56;5039814;28;20054;-76
2024/01/07 10:12:14;;;;;;;9.13;2.83;;;;;;;-141.50;100.00;63355.56;5054480;28;20048;-78
2024/01/07 10:14:41;;;;;;;5.45;2.65;;;;;;;-141.50;100.00;63355.56;5052387;28;20045;-76
2024/01/07 10:17:16;;;;;;;4.07;2.15;;;;;;;-141.50;100.00;63355.56;5045170;28;20040;-78
2024/01/07 10:19:47;;;;;;;3.72;2.17;;;;;;;-141.50;100.00;63355.56;5057250;28;20037;-76
2024/01/07 10:22:16;;;;;;;4.70;2.25;;;;;;;-141.50;100.00;63355.56;5051249;28;20136;-77
2024/01/07 10:24:43;;;;;;;6.63;2.58;;;;;;;-141.50;100.00;63355.56;5046560;28;20048;-76
2024/01/07 10:27:10;;;;;;;4.70;2.45;;;;;;;-141.50;100.00;63355.56;5055891;28;20045;-78
2024/01/07 10:29:37;;;;;;;8.85;2.75;;;;;;;-141.50;100.00;63355.56;5034196;28;20156;-78
2024/01/07 10:32:05;;;;;;;7.18;2.30;;;;;;;-141.50;100.00;63355.56;5048779;28;20044;-77
2024/01/07 10:34:34;;;;;;;6.28;2.75;;;;;;;-141.50;100.00;63355.56;5049097;28;20068;-80
2024/01/07 10:37:04;;;;;;;6.63;2.70;;;;;;;-141.50;100.00;63355.56;5053853;28;20333;-77
2024/01/07 10:39:32;;;;;;;6.32;2.10;;;;;;;-141.50;100.00;63355.56;5057893;28;20067;-76
2024/01/07 10:41:59;;;;;;;7.05;2.33;;;;;;;-141.50;100.00;63355.56;5057953;28;20111;-79
2024/01/07 10:44:28;;;;;;;6.05;2.95;;;;;;;-141.50;100.00;63355.56;5060389;28;21913;-79
2024/01/07 10:46:56;;;;;;;5.88;2.70;;;;;;;-141.50;100.00;63355.56;5037442;28;20048;-78
2024/01/07 10:49:26;;;;;;;6.05;2.50;;;;;;;-141.50;100.00;63355.56;5045587;28;20044;-78
2024/01/07 10:52:04;;;;;;;5.22;2.20;;;;;;;-141.50;100.00;63355.56;5047607;28;20094;-77
2024/01/07 10:54:35;;;;;;;4.47;2.10;;;;;;;-141.50;100.00;63355.56;5041071;28;20075;-76
2024/01/07 10:57:08;;;;;;;6.55;2.90;;;;;;;-141.50;100.00;63355.56;5046099;28;22029;-77
2024/01/07 10:59:37;;;;;;;5.72;2.50;;;;;;;-141.50;100.00;63355.56;5060595;28;20044;-78
2024/01/07 11:02:04;;;;;;;4.13;2.10;;;;;;;-141.50;100.00;63355.56;5042295;28;20589;-76
2024/01/07 11:04:43;;;;;;;5.07;2.10;;;;;;;-141.50;100.00;63355.56;5050647;28;20051;-78
2024/01/07 11:07:37;;;;;;;5.97;2.10;;;;;;;-141.50;100.00;63355.56;5046143;28;20690;-76